Time;durP1;ratioP1;P1;durP2;ratioP2;P2;SDS_P1;SDS_P2;PMS_P1;PMS_P2;Temp;Humidity;BMP_temperature;BMP_pressure;BME280_temperature;BME280_humidity;BME280_pressure;Samples;Min_cycle;Max_cycle;Signal;HPM_P1;HPM_P2
2021/06/02 00:01:48;;;;;;;2.87;2.00;;;;;;;;;;5135239;27;20177;-68
2021/06/02 00:04:33;;;;;;;2.17;1.63;;;;;;;;;;5148690;27;20182;-70
2021/06/02 00:07:24;;;;;;;2.07;1.70;;;;;;;;;;5149187;27;20246;-69
2021/06/02 00:09:52;;;;;;;2.07;1.87;;;;;;;;;;5148848;27;20266;-67
2021/06/02 00:12:18;;;;;;;1.77;1.50;;;;;;;;;;5148494;27;20198;-70
2021/06/02 00:14:44;;;;;;;2.40;1.80;;;;;;;;;;5148855;27;20667;-69
2021/06/02 00:17:11;;;;;;;2.07;1.70;;;;;;;;;;5148788;27;20198;-69
2021/06/02 00:19:38;;;;;;;2.17;1.80;;;;;;;;;;5130165;27;20222;-70
2021/06/02 00:22:05;;;;;;;2.60;2.03;;;;;;;;;;5149815;27;20234;-69
2021/06/02 00:24:32;;;;;;;2.10;1.70;;;;;;;;;;5148326;27;20198;-71
2021/06/02 00:26:59;;;;;;;2.43;1.80;;;;;;;;;;5148837;27;20316;-70
2021/06/02 00:29:29;;;;;;;5.70;2.13;;;;;;;;;;5149082;27;20610;-70
2021/06/02 00:31:55;;;;;;;1.93;1.47;;;;;;;;;;5148432;27;20201;-69
2021/06/02 00:34:22;;;;;;;3.27;1.70;;;;;;;;;;5147542;27;20403;-69
2021/06/02 00:36:49;;;;;;;2.40;1.87;;;;;;;;;;5149350;27;20281;-70
2021/06/02 00:39:16;;;;;;;3.13;2.00;;;;;;;;;;5147681;27;20908;-70
2021/06/02 00:41:43;;;;;;;1.57;1.40;;;;;;;;;;5137451;27;20199;-69
2021/06/02 00:44:11;;;;;;;1.63;1.30;;;;;;;;;;5128311;27;20207;-68
2021/06/02 00:46:38;;;;;;;3.63;2.17;;;;;;;;;;5108727;27;20287;-67
2021/06/02 00:49:06;;;;;;;3.13;1.87;;;;;;;;;;5127174;27;20303;-68
2021/06/02 00:51:33;;;;;;;2.27;1.80;;;;;;;;;;5146604;27;20202;-70
2021/06/02 00:53:59;;;;;;;2.40;1.70;;;;;;;;;;5148468;27;20198;-68
2021/06/02 00:56:30;;;;;;;1.60;1.30;;;;;;;;;;5147335;27;20662;-68
2021/06/02 00:59:01;;;;;;;1.80;1.50;;;;;;;;;;5147917;27;20229;-68
2021/06/02 01:34:38;;;;;;;2.70;1.90;;;;;;;;;;5103155;27;20959;-69
2021/06/02 01:37:20;;;;;;;2.93;1.97;;;;;;;;;;5104728;28;20206;-69
2021/06/02 01:40:02;;;;;;;3.23;1.80;;;;;;;;;;5103730;28;20227;-70
2021/06/02 01:42:35;;;;;;;1.70;1.50;;;;;;;;;;5103948;28;20938;-70
2021/06/02 01:45:09;;;;;;;2.50;1.67;;;;;;;;;;5091294;28;20782;-70
2021/06/02 01:47:38;;;;;;;1.67;1.43;;;;;;;;;;5084040;28;20262;-69
2021/06/02 01:50:11;;;;;;;2.23;1.90;;;;;;;;;;5094528;28;20698;-70
2021/06/02 01:52:37;;;;;;;3.93;2.13;;;;;;;;;;5123890;27;20219;-69
2021/06/02 01:55:12;;;;;;;2.20;1.97;;;;;;;;;;5123842;27;20619;-69
2021/06/02 01:57:42;;;;;;;3.37;1.80;;;;;;;;;;5124591;27;20245;-69
2021/06/02 02:00:10;;;;;;;1.70;1.40;;;;;;;;;;5124151;27;20895;-69
2021/06/02 02:02:55;;;;;;;2.17;1.63;;;;;;;;;;5123761;27;20773;-69
2021/06/02 02:05:45;;;;;;;1.80;1.40;;;;;;;;;;5123676;28;20203;-69
2021/06/02 02:08:27;;;;;;;1.63;1.50;;;;;;;;;;5124231;27;20235;-70
2021/06/02 02:11:17;;;;;;;2.27;1.60;;;;;;;;;;5123687;27;20203;-69
2021/06/02 02:13:43;;;;;;;1.80;1.57;;;;;;;;;;5112839;27;20219;-69
2021/06/02 02:16:10;;;;;;;2.23;1.90;;;;;;;;;;5122634;27;20203;-69
2021/06/02 02:18:55;;;;;;;1.47;1.30;;;;;;;;;;5124314;27;20428;-69
2021/06/02 02:21:30;;;;;;;3.03;1.83;;;;;;;;;;5123012;28;20214;-69
2021/06/02 02:24:14;;;;;;;1.90;1.70;;;;;;;;;;5123680;27;20201;-69
2021/06/02 02:26:40;;;;;;;2.87;1.80;;;;;;;;;;5122806;27;20200;-69
2021/06/02 02:29:12;;;;;;;2.60;1.80;;;;;;;;;;5123630;27;20306;-68
2021/06/02 02:31:43;;;;;;;2.00;1.63;;;;;;;;;;5123580;27;20919;-68
2021/06/02 02:34:25;;;;;;;2.70;1.60;;;;;;;;;;5123036;27;20318;-68
2021/06/02 02:36:57;;;;;;;2.20;1.73;;;;;;;;;;5123735;27;20679;-68
2021/06/02 02:39:34;;;;;;;2.10;1.50;;;;;;;;;;5123273;27;20590;-67
2021/06/02 02:42:06;;;;;;;3.30;2.20;;;;;;;;;;5110176;27;20208;-68
2021/06/02 02:44:39;;;;;;;5.00;1.20;;;;;;;;;;5086473;28;20232;-68
2021/06/02 02:47:11;;;;;;;2.87;1.97;;;;;;;;;;5068478;28;20216;-68
2021/06/02 02:49:43;;;;;;;1.20;1.10;;;;;;;;;;5072825;28;20242;-69
2021/06/02 02:52:13;;;;;;;1.33;1.23;;;;;;;;;;5109647;28;20306;-70
2021/06/02 02:54:58;;;;;;;1.67;1.17;;;;;;;;;;5108534;28;20859;-71
2021/06/02 02:57:27;;;;;;;3.90;1.63;;;;;;;;;;5109596;28;20550;-70
2021/06/02 02:59:56;;;;;;;2.83;1.60;;;;;;;;;;5108800;28;20752;-70
2021/06/02 03:02:32;;;;;;;3.13;2.10;;;;;;;;;;5108370;28;20624;-70
2021/06/02 03:05:00;;;;;;;2.00;1.60;;;;;;;;;;5108168;28;20581;-70
2021/06/02 03:07:31;;;;;;;3.23;1.90;;;;;;;;;;5109464;28;20210;-71
2021/06/02 03:10:08;;;;;;;1.63;1.20;;;;;;;;;;5109454;28;20242;-70
2021/06/02 03:12:52;;;;;;;1.80;1.40;;;;;;;;;;5108879;28;20680;-70
2021/06/02 03:15:33;;;;;;;1.73;1.47;;;;;;;;;;5108554;27;20299;-70
2021/06/02 03:18:18;;;;;;;2.20;1.83;;;;;;;;;;5108869;28;20207;-71
2021/06/02 03:20:46;;;;;;;1.63;1.20;;;;;;;;;;5108286;28;20286;-70
2021/06/02 03:23:16;;;;;;;3.20;1.80;;;;;;;;;;5108684;28;20203;-70
2021/06/02 03:25:48;;;;;;;2.93;1.43;;;;;;;;;;5108604;28;20303;-70
2021/06/02 03:28:21;;;;;;;3.53;1.80;;;;;;;;;;5107500;28;20199;-70
2021/06/02 03:30:47;;;;;;;1.70;1.60;;;;;;;;;;5108264;28;20362;-70
2021/06/02 03:33:20;;;;;;;1.97;1.70;;;;;;;;;;5106369;28;20220;-70
2021/06/02 03:35:52;;;;;;;1.87;1.53;;;;;;;;;;5108070;28;20196;-71
2021/06/02 03:38:37;;;;;;;3.13;1.77;;;;;;;;;;5108993;28;20222;-70
2021/06/02 03:41:19;;;;;;;2.33;1.67;;;;;;;;;;5103568;28;20291;-71
2021/06/02 03:44:05;;;;;;;1.90;1.70;;;;;;;;;;5085516;28;20295;-70
2021/06/02 03:46:32;;;;;;;2.27;1.47;;;;;;;;;;5055412;28;20216;-69
2021/06/02 03:49:17;;;;;;;1.93;1.43;;;;;;;;;;5066243;28;20323;-70
2021/06/02 03:51:43;;;;;;;2.50;1.67;;;;;;;;;;5106699;28;20210;-69
2021/06/02 03:54:17;;;;;;;2.37;1.63;;;;;;;;;;5107559;28;20230;-70
2021/06/02 03:56:57;;;;;;;1.30;1.13;;;;;;;;;;5106336;28;20210;-70
2021/06/02 03:59:42;;;;;;;1.40;1.30;;;;;;;;;;5108585;28;20302;-70
2021/06/02 04:02:32;;;;;;;2.70;1.60;;;;;;;;;;5108092;28;20210;-71
2021/06/02 04:05:17;;;;;;;2.33;1.83;;;;;;;;;;5104167;28;20208;-70
2021/06/02 04:08:05;;;;;;;2.60;1.80;;;;;;;;;;5108684;28;20795;-69
2021/06/02 04:10:50;;;;;;;2.77;1.80;;;;;;;;;;5107768;28;20224;-68
2021/06/02 04:13:32;;;;;;;1.47;1.37;;;;;;;;;;5107423;28;20661;-68
2021/06/02 04:16:09;;;;;;;1.90;1.47;;;;;;;;;;5106716;28;20399;-69
2021/06/02 04:18:36;;;;;;;1.27;1.00;;;;;;;;;;5107264;28;20229;-69
2021/06/02 04:21:03;;;;;;;2.50;1.50;;;;;;;;;;5107111;28;20218;-68
2021/06/02 04:23:31;;;;;;;6.33;1.50;;;;;;;;;;5106545;28;20203;-68
2021/06/02 04:25:59;;;;;;;1.83;1.37;;;;;;;;;;5106672;28;20354;-68
2021/06/02 04:28:26;;;;;;;2.37;1.80;;;;;;;;;;5106867;28;20291;-68
2021/06/02 04:30:55;;;;;;;16.80;1.90;;;;;;;;;;5107659;28;20214;-69
2021/06/02 04:33:23;;;;;;;2.37;1.30;;;;;;;;;;5107612;28;20234;-68
2021/06/02 04:35:50;;;;;;;2.40;1.80;;;;;;;;;;5105818;28;20310;-69
2021/06/02 04:38:18;;;;;;;2.27;1.60;;;;;;;;;;5107074;28;20200;-69
2021/06/02 04:40:46;;;;;;;2.80;1.97;;;;;;;;;;5105231;28;20196;-69
2021/06/02 04:43:13;;;;;;;2.93;1.63;;;;;;;;;;5086624;28;20209;-69
2021/06/02 04:45:42;;;;;;;1.87;1.50;;;;;;;;;;5067963;28;20291;-69
2021/06/02 04:48:09;;;;;;;1.80;1.37;;;;;;;;;;5066899;28;20301;-69
2021/06/02 04:50:47;;;;;;;2.30;1.57;;;;;;;;;;5086486;28;20217;-69
2021/06/02 04:53:40;;;;;;;4.13;1.63;;;;;;;;;;5107124;28;20306;-69
2021/06/02 04:56:26;;;;;;;2.33;1.57;;;;;;;;;;5105686;28;20200;-69
2021/06/02 04:59:02;;;;;;;1.80;1.60;;;;;;;;;;5106291;28;20227;-69
2021/06/02 05:01:47;;;;;;;1.90;1.50;;;;;;;;;;5106306;28;20581;-69
2021/06/02 05:04:37;;;;;;;4.03;1.93;;;;;;;;;;5105492;28;20625;-69
2021/06/02 05:07:12;;;;;;;3.13;1.97;;;;;;;;;;5103189;28;20902;-69
2021/06/02 05:09:42;;;;;;;2.53;1.80;;;;;;;;;;5106915;28;20223;-69
2021/06/02 05:12:14;;;;;;;2.13;1.50;;;;;;;;;;5106345;28;20208;-69
2021/06/02 05:15:04;;;;;;;1.60;1.50;;;;;;;;;;5105209;28;20688;-69
2021/06/02 05:17:52;;;;;;;2.97;1.80;;;;;;;;;;5106247;28;20843;-70
2021/06/02 05:23:17;;;;;;;10.77;1.80;;;;;;;;;;5094046;28;20213;-70
2021/06/02 05:25:46;;;;;;;1.40;1.30;;;;;;;;;;5105463;28;20289;-70
2021/06/02 05:28:31;;;;;;;2.15;1.55;;;;;;;;;;5106315;28;20218;-69
2021/06/02 05:31:00;;;;;;;1.88;1.50;;;;;;;;;;5106442;28;20220;-69
2021/06/02 05:33:45;;;;;;;1.77;1.60;;;;;;;;;;5106410;28;20382;-70
2021/06/02 05:36:30;;;;;;;2.35;1.38;;;;;;;;;;5105788;28;20294;-70
2021/06/02 05:39:09;;;;;;;1.95;1.63;;;;;;;;;;5106599;28;20294;-69
2021/06/02 05:41:51;;;;;;;2.15;1.45;;;;;;;;;;5097706;28;20452;-69
2021/06/02 05:44:20;;;;;;;1.30;1.20;;;;;;;;;;5080368;28;20320;-69
2021/06/02 05:47:05;;;;;;;3.03;1.23;;;;;;;;;;5065379;28;20204;-69
2021/06/02 05:49:34;;;;;;;2.20;1.50;;;;;;;;;;5068740;28;20856;-69
2021/06/02 05:52:16;;;;;;;1.58;1.48;;;;;;;;;;5106305;28;20610;-69
2021/06/02 05:54:45;;;;;;;1.30;1.20;;;;;;;;;;5105979;28;20208;-69
2021/06/02 05:57:21;;;;;;;2.47;1.33;;;;;;;;;;5105608;28;20221;-69
2021/06/02 05:59:47;;;;;;;1.27;1.15;;;;;;;;;;5105979;28;20229;-69
2021/06/02 06:02:19;;;;;;;4.00;1.98;;;;;;;;;;5106568;28;20291;-69
2021/06/02 06:04:57;;;;;;;1.58;1.13;;;;;;;;;;5098060;28;20304;-69
2021/06/02 06:07:41;;;;;;;1.75;1.20;;;;;;;;;;5074881;28;20666;-69
2021/06/02 06:10:33;;;;;;;1.42;1.20;;;;;;;;;;5074918;28;20217;-69
2021/06/02 06:13:18;;;;;;;2.78;1.10;;;;;;;;;;5085488;28;20246;-69
2021/06/02 06:16:05;;;;;;;1.20;0.95;;;;;;;;;;5076446;28;20684;-69
2021/06/02 06:18:32;;;;;;;3.17;1.38;;;;;;;;;;5078574;28;20251;-69
2021/06/02 06:21:01;;;;;;;1.30;1.20;;;;;;;;;;5088187;28;20402;-69
2021/06/02 06:23:38;;;;;;;1.45;1.20;;;;;;;;;;5086400;28;20754;-69
2021/06/02 06:26:15;;;;;;;2.10;1.30;;;;;;;;;;5085492;28;20257;-69
2021/06/02 06:28:45;;;;;;;1.20;1.10;;;;;;;;;;5087043;28;20285;-70
2021/06/02 06:31:17;;;;;;;1.20;1.10;;;;;;;;;;5086831;28;20197;-70
2021/06/02 06:33:45;;;;;;;1.92;1.30;;;;;;;;;;5087073;28;20303;-69
2021/06/02 06:36:13;;;;;;;3.05;1.13;;;;;;;;;;5087347;28;20205;-69
2021/06/02 06:38:42;;;;;;;2.05;0.90;;;;;;;;;;5085193;28;20282;-69
2021/06/02 06:41:11;;;;;;;1.13;0.95;;;;;;;;;;5085548;28;20299;-68
2021/06/02 06:43:38;;;;;;;1.33;1.13;;;;;;;;;;5080178;28;20304;-69
2021/06/02 06:46:05;;;;;;;1.35;1.10;;;;;;;;;;5082192;28;20196;-68
2021/06/02 06:48:31;;;;;;;1.67;1.40;;;;;;;;;;5085775;28;20250;-70
2021/06/02 06:50:59;;;;;;;1.30;0.88;;;;;;;;;;5086577;28;20192;-70
2021/06/02 06:53:26;;;;;;;1.40;1.17;;;;;;;;;;5086959;28;20783;-70
2021/06/02 06:55:53;;;;;;;1.85;1.38;;;;;;;;;;5085716;28;20247;-68
2021/06/02 06:58:21;;;;;;;1.50;1.10;;;;;;;;;;5084577;28;20197;-68
2021/06/02 07:00:47;;;;;;;0.95;0.88;;;;;;;;;;5083221;28;20189;-70
2021/06/02 07:03:15;;;;;;;1.35;0.90;;;;;;;;;;5077340;28;20242;-71
2021/06/02 07:05:41;;;;;;;2.92;1.20;;;;;;;;;;5085719;28;20983;-68
2021/06/02 07:08:08;;;;;;;1.33;1.10;;;;;;;;;;5087352;28;20206;-67
2021/06/02 07:10:34;;;;;;;1.42;1.00;;;;;;;;;;5086445;28;20312;-69
2021/06/02 07:13:01;;;;;;;1.55;1.23;;;;;;;;;;5086354;28;20269;-67
2021/06/02 07:15:29;;;;;;;1.50;1.27;;;;;;;;;;5070757;28;20288;-69
2021/06/02 07:17:56;;;;;;;1.20;0.80;;;;;;;;;;5066184;28;20196;-69
2021/06/02 07:20:28;;;;;;;2.42;1.05;;;;;;;;;;5065720;28;20325;-68
2021/06/02 07:22:54;;;;;;;1.45;1.00;;;;;;;;;;5081196;28;20200;-69
2021/06/02 07:25:25;;;;;;;2.25;1.10;;;;;;;;;;5085845;28;20315;-69
2021/06/02 07:27:52;;;;;;;0.80;0.80;;;;;;;;;;5085802;28;20239;-67
2021/06/02 07:30:21;;;;;;;3.63;1.02;;;;;;;;;;5086915;28;20708;-66
2021/06/02 07:32:48;;;;;;;1.13;0.70;;;;;;;;;;5087688;28;20218;-67
2021/06/02 07:35:15;;;;;;;1.35;1.25;;;;;;;;;;5086838;28;20208;-69
2021/06/02 07:37:41;;;;;;;2.67;1.05;;;;;;;;;;5079401;28;20203;-68
2021/06/02 07:40:08;;;;;;;1.45;1.13;;;;;;;;;;5084929;28;20224;-67
2021/06/02 07:42:35;;;;;;;0.80;0.80;;;;;;;;;;5085693;28;20315;-66
2021/06/02 07:45:03;;;;;;;0.63;0.60;;;;;;;;;;5088550;28;20246;-67
2021/06/02 07:47:29;;;;;;;0.60;0.60;;;;;;;;;;5091742;28;20283;-67
2021/06/02 07:49:56;;;;;;;0.90;0.60;;;;;;;;;;5083401;28;20725;-66
2021/06/02 07:52:23;;;;;;;1.20;0.75;;;;;;;;;;5084376;28;20574;-68
2021/06/02 07:54:49;;;;;;;0.50;0.50;;;;;;;;;;5084693;28;20607;-69
2021/06/02 07:57:15;;;;;;;0.55;0.50;;;;;;;;;;5085777;28;20200;-68
2021/06/02 07:59:42;;;;;;;1.15;0.60;;;;;;;;;;5086224;28;20839;-68
2021/06/02 08:02:08;;;;;;;0.57;0.57;;;;;;;;;;5084834;28;20214;-68
2021/06/02 08:04:35;;;;;;;0.40;0.40;;;;;;;;;;5085077;28;20313;-68
2021/06/02 08:07:03;;;;;;;0.63;0.50;;;;;;;;;;5086300;28;20201;-68
2021/06/02 08:09:29;;;;;;;1.23;0.52;;;;;;;;;;5085463;28;20218;-68
2021/06/02 08:11:55;;;;;;;1.08;0.70;;;;;;;;;;5083345;28;20589;-69
2021/06/02 08:14:22;;;;;;;0.70;0.65;;;;;;;;;;5085200;28;20237;-67
2021/06/02 08:16:49;;;;;;;0.80;0.65;;;;;;;;;;5082897;28;20214;-67
2021/06/02 08:19:15;;;;;;;2.42;0.88;;;;;;;;;;5085245;28;20220;-67
2021/06/02 08:21:41;;;;;;;0.50;0.50;;;;;;;;;;5084831;28;20290;-66
2021/06/02 08:24:08;;;;;;;0.50;0.50;;;;;;;;;;5083349;28;20762;-66
2021/06/02 08:26:38;;;;;;;0.50;0.50;;;;;;;;;;5084231;28;20200;-66
2021/06/02 08:29:05;;;;;;;0.68;0.60;;;;;;;;;;5080046;28;20307;-66
2021/06/02 08:31:31;;;;;;;4.00;0.82;;;;;;;;;;5084565;28;20205;-66
2021/06/02 08:33:59;;;;;;;1.98;0.77;;;;;;;;;;5084634;28;20223;-66
2021/06/02 08:36:25;;;;;;;0.70;0.70;;;;;;;;;;5084265;28;20193;-66
2021/06/02 08:38:52;;;;;;;1.45;1.00;;;;;;;;;;5080806;28;20265;-67
2021/06/02 08:41:19;;;;;;;1.10;1.00;;;;;;;;;;5084589;28;20626;-68
2021/06/02 08:43:46;;;;;;;4.07;1.02;;;;;;;;;;5083686;28;20228;-66
2021/06/02 08:46:13;;;;;;;0.93;0.85;;;;;;;;;;5083528;28;20691;-64
2021/06/02 08:48:43;;;;;;;1.63;0.70;;;;;;;;;;5076265;28;20586;-67
2021/06/02 08:51:09;;;;;;;0.90;0.85;;;;;;;;;;5086616;28;20197;-67
2021/06/02 08:53:36;;;;;;;1.55;0.82;;;;;;;;;;5082234;28;20204;-65
2021/06/02 08:56:04;;;;;;;1.00;0.73;;;;;;;;;;5081478;28;20236;-66
2021/06/02 08:58:30;;;;;;;1.08;0.82;;;;;;;;;;5082865;28;20261;-66
2021/06/02 09:00:57;;;;;;;0.93;0.73;;;;;;;;;;5083851;28;20303;-66
2021/06/02 09:03:23;;;;;;;0.68;0.63;;;;;;;;;;5085205;28;20201;-66
2021/06/02 09:05:50;;;;;;;0.80;0.80;;;;;;;;;;5082630;28;20229;-67
2021/06/02 09:08:18;;;;;;;0.80;0.60;;;;;;;;;;5083545;28;20251;-65
2021/06/02 09:10:45;;;;;;;1.27;0.80;;;;;;;;;;5084398;28;20204;-66
2021/06/02 09:13:16;;;;;;;0.85;0.80;;;;;;;;;;5082727;28;20200;-66
2021/06/02 09:15:43;;;;;;;1.25;0.88;;;;;;;;;;5082125;28;20713;-67
2021/06/02 09:18:14;;;;;;;1.00;0.80;;;;;;;;;;5084074;28;20213;-66
2021/06/02 09:20:47;;;;;;;2.10;1.00;;;;;;;;;;5084800;28;20204;-67
2021/06/02 09:23:32;;;;;;;2.80;1.02;;;;;;;;;;5083836;28;20308;-67
2021/06/02 09:26:11;;;;;;;1.27;0.80;;;;;;;;;;5083660;28;20246;-67
2021/06/02 09:29:08;;;;;;;1.05;0.70;;;;;;;;;;5084914;28;20299;-67
2021/06/02 09:31:41;;;;;;;0.80;0.80;;;;;;;;;;5083100;28;20197;-67
2021/06/02 09:34:23;;;;;;;1.17;0.77;;;;;;;;;;5073418;28;20643;-67
2021/06/02 09:36:53;;;;;;;2.92;1.30;;;;;;;;;;5073177;28;20197;-67
2021/06/02 09:39:21;;;;;;;1.75;0.70;;;;;;;;;;5070087;28;20243;-68
2021/06/02 09:41:54;;;;;;;1.85;1.25;;;;;;;;;;5083727;28;20257;-67
2021/06/02 09:44:24;;;;;;;0.55;0.45;;;;;;;;;;5079550;28;20224;-67
2021/06/02 09:47:07;;;;;;;1.15;0.75;;;;;;;;;;5081300;28;20957;-68
2021/06/02 09:49:51;;;;;;;1.17;0.82;;;;;;;;;;5083282;28;20915;-67
2021/06/02 09:52:18;;;;;;;1.33;0.75;;;;;;;;;;5084172;28;20239;-69
2021/06/02 09:54:45;;;;;;;0.63;0.60;;;;;;;;;;5082648;28;20204;-70
2021/06/02 09:57:12;;;;;;;0.77;0.77;;;;;;;;;;5086596;28;20350;-68
2021/06/02 09:59:55;;;;;;;1.20;1.02;;;;;;;;;;5086459;28;20802;-67
2021/06/02 10:02:22;;;;;;;0.55;0.50;;;;;;;;;;5087430;28;20208;-69
2021/06/02 10:05:02;;;;;;;1.45;0.80;;;;;;;;;;5086283;28;20299;-66
2021/06/02 10:07:29;;;;;;;0.75;0.75;;;;;;;;;;5086146;28;20364;-70
2021/06/02 10:10:06;;;;;;;0.55;0.50;;;;;;;;;;5084086;28;20279;-70
2021/06/02 10:12:32;;;;;;;1.70;1.25;;;;;;;;;;5079087;28;20206;-69
2021/06/02 10:14:59;;;;;;;0.60;0.60;;;;;;;;;;5085672;28;20269;-71
2021/06/02 10:17:30;;;;;;;1.00;0.80;;;;;;;;;;5086375;28;20295;-69
2021/06/02 10:20:07;;;;;;;1.63;0.52;;;;;;;;;;5086781;28;20322;-72
2021/06/02 10:22:33;;;;;;;4.50;1.05;;;;;;;;;;5086965;28;20238;-70
2021/06/02 10:25:01;;;;;;;1.50;1.08;;;;;;;;;;5085490;28;20600;-72
2021/06/02 10:27:28;;;;;;;0.55;0.55;;;;;;;;;;5085260;28;20201;-71
2021/06/02 10:29:54;;;;;;;0.60;0.60;;;;;;;;;;5084866;28;20228;-71
2021/06/02 10:32:21;;;;;;;0.95;0.80;;;;;;;;;;5085430;28;20349;-71
2021/06/02 10:34:48;;;;;;;1.80;1.23;;;;;;;;;;5085867;28;20295;-70
2021/06/02 10:37:16;;;;;;;0.73;0.73;;;;;;;;;;5085705;28;20836;-70
2021/06/02 10:39:45;;;;;;;1.05;0.93;;;;;;;;;;5083865;28;20229;-70
2021/06/02 10:42:18;;;;;;;1.23;0.82;;;;;;;;;;5083915;28;20204;-71
2021/06/02 10:44:47;;;;;;;1.08;0.77;;;;;;;;;;5078964;28;20248;-69
2021/06/02 10:47:14;;;;;;;11.93;1.05;;;;;;;;;;5084841;28;20220;-70
2021/06/02 10:49:40;;;;;;;13.20;1.70;;;;;;;;;;5066214;28;20220;-70
2021/06/02 10:52:06;;;;;;;2.28;1.45;;;;;;;;;;5105767;28;20559;-70
2021/06/02 10:54:40;;;;;;;1.63;1.23;;;;;;;;;;5104828;28;20232;-71
2021/06/02 10:57:08;;;;;;;2.33;0.98;;;;;;;;;;5105523;28;20203;-70
2021/06/02 10:59:35;;;;;;;1.33;1.02;;;;;;;;;;5105341;28;20220;-70
2021/06/02 11:02:02;;;;;;;1.98;1.10;;;;;;;;;;5106807;28;20208;-70
2021/06/02 11:04:29;;;;;;;1.05;0.80;;;;;;;;;;5104941;28;20688;-70
2021/06/02 11:07:13;;;;;;;3.95;1.80;;;;;;;;;;5105190;28;20229;-69
2021/06/02 11:09:52;;;;;;;2.28;1.20;;;;;;;;;;5104261;28;20308;-70
2021/06/02 11:12:18;;;;;;;1.45;1.10;;;;;;;;;;5105683;28;20226;-70
2021/06/02 11:14:45;;;;;;;0.65;0.65;;;;;;;;;;5105416;28;20207;-71
2021/06/02 11:17:12;;;;;;;5.22;1.38;;;;;;;;;;5106013;28;20209;-71
2021/06/02 11:19:42;;;;;;;1.77;0.70;;;;;;;;;;5105034;28;20223;-70
2021/06/02 11:22:12;;;;;;;1.10;1.00;;;;;;;;;;5104628;28;20573;-70
2021/06/02 11:24:42;;;;;;;1.17;0.82;;;;;;;;;;5105224;28;20695;-72
2021/06/02 11:32:19;;;;;;;0.90;0.73;;;;;;;;;;5088021;28;20772;-70
2021/06/02 11:34:52;;;;;;;2.65;1.13;;;;;;;;;;5083300;28;20205;-69
2021/06/02 11:37:23;;;;;;;0.68;0.68;;;;;;;;;;5085437;28;20208;-71
2021/06/02 11:39:54;;;;;;;1.88;1.33;;;;;;;;;;5084771;28;20248;-70
2021/06/02 11:42:27;;;;;;;1.27;0.93;;;;;;;;;;5083008;28;20212;-69
2021/06/02 11:44:57;;;;;;;0.93;0.82;;;;;;;;;;5071553;28;20619;-70
2021/06/02 11:47:23;;;;;;;1.13;0.88;;;;;;;;;;5062491;28;20292;-71
2021/06/02 11:49:49;;;;;;;0.77;0.77;;;;;;;;;;5072392;28;20390;-71
2021/06/02 11:52:17;;;;;;;1.30;1.00;;;;;;;;;;5104015;28;20295;-70
2021/06/02 11:54:49;;;;;;;1.48;1.20;;;;;;;;;;5103967;28;20652;-71
2021/06/02 11:57:25;;;;;;;1.63;1.10;;;;;;;;;;5103957;28;20264;-70
2021/06/02 11:59:57;;;;;;;1.23;1.02;;;;;;;;;;5105190;28;20280;-70
2021/06/02 12:02:24;;;;;;;0.60;0.60;;;;;;;;;;5104540;28;20879;-70
2021/06/02 12:04:50;;;;;;;1.23;1.00;;;;;;;;;;5103690;28;20196;-71
2021/06/02 12:07:20;;;;;;;2.08;1.13;;;;;;;;;;5105226;28;20264;-71
2021/06/02 12:09:53;;;;;;;1.35;0.95;;;;;;;;;;5104945;28;20307;-70
2021/06/02 12:12:21;;;;;;;0.70;0.70;;;;;;;;;;5103233;28;20208;-70
2021/06/02 12:14:51;;;;;;;1.10;0.77;;;;;;;;;;5085323;28;20287;-72
2021/06/02 12:17:18;;;;;;;0.57;0.55;;;;;;;;;;5104607;28;20199;-70
2021/06/02 12:19:46;;;;;;;1.20;1.00;;;;;;;;;;5104116;28;20223;-71
2021/06/02 12:22:18;;;;;;;1.35;0.90;;;;;;;;;;5102672;28;20762;-70
2021/06/02 12:25:00;;;;;;;1.20;0.98;;;;;;;;;;5105896;28;20287;-70
2021/06/02 12:27:26;;;;;;;1.13;0.88;;;;;;;;;;5102778;28;20235;-70
2021/06/02 12:30:10;;;;;;;0.75;0.60;;;;;;;;;;5103302;28;20228;-71
2021/06/02 12:32:42;;;;;;;0.60;0.60;;;;;;;;;;5090528;28;20205;-71
2021/06/02 12:35:25;;;;;;;0.70;0.63;;;;;;;;;;5088047;28;20750;-72
2021/06/02 12:37:57;;;;;;;0.93;0.82;;;;;;;;;;5080094;28;20335;-71
2021/06/02 12:40:24;;;;;;;1.20;0.90;;;;;;;;;;5077097;28;20453;-71
2021/06/02 12:42:50;;;;;;;1.50;0.90;;;;;;;;;;5083477;28;20668;-71
2021/06/02 12:45:37;;;;;;;3.33;0.70;;;;;;;;;;5064990;28;20808;-71
2021/06/02 12:48:04;;;;;;;1.08;0.75;;;;;;;;;;5062732;28;20288;-69
2021/06/02 12:50:41;;;;;;;1.35;0.82;;;;;;;;;;5079235;28;20219;-66
2021/06/02 12:53:08;;;;;;;0.95;0.85;;;;;;;;;;5104067;28;20207;-66
2021/06/02 12:55:36;;;;;;;0.75;0.70;;;;;;;;;;5102623;28;20254;-66
2021/06/02 12:58:04;;;;;;;1.08;0.80;;;;;;;;;;5093883;28;20606;-67
2021/06/02 13:00:30;;;;;;;1.38;1.20;;;;;;;;;;5081520;28;20315;-67
2021/06/02 13:02:58;;;;;;;0.93;0.70;;;;;;;;;;5079234;28;20209;-65
2021/06/02 13:05:25;;;;;;;1.38;0.95;;;;;;;;;;5081756;28;20226;-66
2021/06/02 13:08:01;;;;;;;1.10;0.80;;;;;;;;;;5080942;28;20280;-65
2021/06/02 13:10:29;;;;;;;0.80;0.60;;;;;;;;;;5081347;28;20231;-65
2021/06/02 13:12:57;;;;;;;0.65;0.65;;;;;;;;;;5081916;28;20642;-66
2021/06/02 13:15:25;;;;;;;1.05;0.68;;;;;;;;;;5081789;28;20311;-68
2021/06/02 13:17:52;;;;;;;1.27;0.85;;;;;;;;;;5078842;28;20676;-69
2021/06/02 13:20:29;;;;;;;1.00;0.70;;;;;;;;;;5085888;28;20665;-68
2021/06/02 13:23:25;;;;;;;0.60;0.60;;;;;;;;;;5087528;28;20204;-69
2021/06/02 13:26:01;;;;;;;0.93;0.68;;;;;;;;;;5086753;28;20220;-70
2021/06/02 13:28:28;;;;;;;0.75;0.65;;;;;;;;;;5070459;28;20903;-72
2021/06/02 13:30:59;;;;;;;0.55;0.55;;;;;;;;;;5082200;28;20273;-69
2021/06/02 13:33:42;;;;;;;0.98;0.88;;;;;;;;;;5079609;28;20201;-71
2021/06/02 13:36:10;;;;;;;1.02;0.85;;;;;;;;;;5081683;28;20208;-71
2021/06/02 13:38:36;;;;;;;4.03;1.25;;;;;;;;;;5082502;28;20273;-70
2021/06/02 13:41:03;;;;;;;0.70;0.60;;;;;;;;;;5083065;28;20266;-71
2021/06/02 13:43:42;;;;;;;0.70;0.60;;;;;;;;;;5082259;28;20273;-71
2021/06/02 13:46:10;;;;;;;0.80;0.77;;;;;;;;;;5061559;28;20361;-70
2021/06/02 13:48:40;;;;;;;0.50;0.50;;;;;;;;;;5061055;28;20295;-70
2021/06/02 13:51:07;;;;;;;0.60;0.60;;;;;;;;;;5089627;28;20575;-70
2021/06/02 13:53:34;;;;;;;0.82;0.75;;;;;;;;;;5100368;28;20199;-70
2021/06/02 13:56:00;;;;;;;2.50;0.80;;;;;;;;;;5081065;28;20254;-70
2021/06/02 13:58:27;;;;;;;0.93;0.75;;;;;;;;;;5080030;28;20973;-70
2021/06/02 14:00:53;;;;;;;0.63;0.63;;;;;;;;;;5078898;28;20291;-70
2021/06/02 14:03:20;;;;;;;0.70;0.70;;;;;;;;;;5081581;28;20200;-70
2021/06/02 14:05:46;;;;;;;4.50;0.70;;;;;;;;;;5079354;28;20258;-70
2021/06/02 14:08:13;;;;;;;0.73;0.63;;;;;;;;;;5080369;28;20279;-70
2021/06/02 14:10:39;;;;;;;1.23;0.82;;;;;;;;;;5079609;28;20629;-70
2021/06/02 14:13:06;;;;;;;1.92;1.20;;;;;;;;;;5078929;28;20208;-69
2021/06/02 14:15:32;;;;;;;1.05;0.95;;;;;;;;;;5080531;28;20287;-69
2021/06/02 14:17:59;;;;;;;1.30;0.75;;;;;;;;;;5081017;28;20213;-70
2021/06/02 14:20:25;;;;;;;0.77;0.60;;;;;;;;;;5080719;28;20316;-70
2021/06/02 14:22:55;;;;;;;0.70;0.68;;;;;;;;;;5080683;28;20228;-70
2021/06/02 14:25:22;;;;;;;0.70;0.70;;;;;;;;;;5080964;28;20239;-72
2021/06/02 14:27:49;;;;;;;0.70;0.70;;;;;;;;;;5079951;28;20211;-71
2021/06/02 14:30:16;;;;;;;1.67;1.08;;;;;;;;;;5076849;28;20310;-70
2021/06/02 14:32:43;;;;;;;0.82;0.80;;;;;;;;;;5079322;28;20232;-72
2021/06/02 14:35:10;;;;;;;1.13;0.57;;;;;;;;;;5077965;28;20632;-70
2021/06/02 14:37:42;;;;;;;1.27;0.82;;;;;;;;;;5079346;28;20722;-70
2021/06/02 14:40:09;;;;;;;0.90;0.50;;;;;;;;;;5080204;28;20323;-70
2021/06/02 14:42:36;;;;;;;1.00;0.70;;;;;;;;;;5061932;28;20395;-71
2021/06/02 14:45:03;;;;;;;0.75;0.70;;;;;;;;;;5072944;28;20610;-70
2021/06/02 14:47:29;;;;;;;0.50;0.50;;;;;;;;;;5080463;28;20355;-70
2021/06/02 14:49:56;;;;;;;0.70;0.50;;;;;;;;;;5083223;28;20243;-70
2021/06/02 14:52:23;;;;;;;4.68;0.68;;;;;;;;;;5083564;28;20210;-71
2021/06/02 14:54:49;;;;;;;1.23;0.88;;;;;;;;;;5082696;28;20295;-70
2021/06/02 14:57:15;;;;;;;1.35;0.55;;;;;;;;;;5083337;28;20215;-70
2021/06/02 14:59:42;;;;;;;0.60;0.60;;;;;;;;;;5082285;28;20303;-70
2021/06/02 15:02:08;;;;;;;0.60;0.60;;;;;;;;;;5083933;28;20303;-70
2021/06/02 15:04:36;;;;;;;0.60;0.60;;;;;;;;;;5081765;28;20778;-71
2021/06/02 15:07:02;;;;;;;1.88;0.73;;;;;;;;;;5082102;28;20256;-70
2021/06/02 15:09:29;;;;;;;2.13;0.90;;;;;;;;;;5081616;28;20256;-70
2021/06/02 15:11:55;;;;;;;1.08;0.80;;;;;;;;;;5080792;28;20200;-71
2021/06/02 15:14:22;;;;;;;1.65;1.00;;;;;;;;;;5082295;28;20264;-72
2021/06/02 15:16:50;;;;;;;1.15;0.55;;;;;;;;;;5085378;28;20709;-72
2021/06/02 15:19:20;;;;;;;0.50;0.50;;;;;;;;;;5087631;28;20289;-71
2021/06/02 15:21:47;;;;;;;0.80;0.70;;;;;;;;;;5087611;28;20231;-71
2021/06/02 15:24:14;;;;;;;0.90;0.70;;;;;;;;;;5084049;28;20801;-75
2021/06/02 15:26:41;;;;;;;2.22;0.80;;;;;;;;;;5087374;28;20235;-70
2021/06/02 15:29:09;;;;;;;0.73;0.60;;;;;;;;;;5088176;28;20224;-74
2021/06/02 15:31:36;;;;;;;2.10;0.60;;;;;;;;;;5088959;28;20265;-69
2021/06/02 15:34:03;;;;;;;1.25;0.57;;;;;;;;;;5087856;28;20315;-72
2021/06/02 15:36:31;;;;;;;0.70;0.70;;;;;;;;;;5087249;28;20287;-71
2021/06/02 15:39:06;;;;;;;1.10;0.77;;;;;;;;;;5087577;28;20326;-71
2021/06/02 15:41:33;;;;;;;0.57;0.57;;;;;;;;;;5085834;28;20224;-71
2021/06/02 15:44:03;;;;;;;0.80;0.60;;;;;;;;;;5084691;28;20280;-71
2021/06/02 15:46:30;;;;;;;0.70;0.70;;;;;;;;;;5065006;28;20696;-70
2021/06/02 15:48:56;;;;;;;1.75;1.13;;;;;;;;;;5066768;28;20312;-71